createdAt,value
2023-01-25T00:00:17.497Z,28.69
2023-01-25T00:01:17.552Z,28.70
2023-01-25T00:02:18.047Z,28.72
2023-01-25T00:03:17.776Z,28.70
2023-01-25T01:37:25.252Z,28.40
2023-01-25T01:49:24.915Z,28.35
2023-01-25T01:50:24.980Z,28.34
2023-01-25T01:51:25.184Z,28.34
2023-01-25T01:52:25.128Z,28.35
2023-01-25T01:53:25.194Z,28.36
2023-01-25T01:54:25.265Z,28.36
2023-01-25T01:55:25.334Z,28.34
2023-01-25T01:56:26.262Z,28.36
2023-01-25T01:57:25.469Z,28.34
2023-01-25T01:58:25.541Z,28.35
2023-01-25T01:59:25.803Z,28.31
2023-01-25T02:00:25.666Z,28.34
2023-01-25T02:01:25.803Z,28.25
2023-01-25T02:02:25.879Z,28.31
2023-01-25T02:03:25.880Z,28.28
2023-01-25T02:04:26.239Z,28.31
2023-01-25T02:05:26.010Z,28.36
2023-01-25T02:06:26.060Z,28.28
2023-01-25T02:07:26.136Z,28.28
2023-01-25T02:08:26.207Z,28.26
2023-01-25T02:09:26.294Z,28.34
2023-01-25T02:10:26.603Z,28.29
2023-01-25T02:11:26.433Z,28.23
2023-01-25T02:12:26.506Z,28.28
2023-01-25T02:13:26.568Z,28.32
2023-01-25T02:14:26.654Z,28.29
2023-01-25T02:15:26.714Z,28.32
2023-01-25T02:16:27.117Z,28.29
2023-01-25T02:17:26.846Z,28.23
2023-01-25T02:18:26.917Z,28.25
2023-01-25T02:19:27.784Z,28.29
2023-01-25T02:20:27.064Z,28.22
2023-01-25T02:21:27.136Z,28.26
2023-01-25T02:22:27.201Z,28.23
2023-01-25T02:23:27.981Z,28.25
2023-01-25T02:24:27.392Z,28.23
2023-01-25T02:25:27.766Z,28.20
2023-01-25T02:26:27.482Z,28.20
2023-01-25T02:27:27.553Z,28.25
2023-01-25T02:28:27.627Z,28.25
2023-01-25T02:29:28.668Z,28.25
2023-01-25T02:30:27.777Z,28.20
2023-01-25T02:31:28.018Z,28.22
2023-01-25T02:32:28.178Z,28.23
2023-01-25T02:33:27.990Z,28.20
2023-01-25T02:34:28.279Z,28.18
2023-01-25T02:35:28.144Z,28.18
2023-01-25T02:36:28.221Z,28.22
2023-01-25T02:37:28.587Z,28.19
2023-01-25T02:38:28.345Z,28.18
2023-01-25T02:39:28.427Z,28.19
2023-01-25T02:40:28.494Z,28.13
2023-01-25T02:41:28.564Z,28.22
2023-01-25T02:42:28.632Z,28.14
2023-01-25T02:43:28.717Z,28.16
2023-01-25T02:44:28.776Z,28.20
2023-01-25T02:45:28.862Z,28.19
2023-01-25T02:46:29.797Z,28.14
2023-01-25T02:47:29.090Z,28.16
2023-01-25T02:48:29.321Z,28.20
2023-01-25T02:49:29.174Z,28.14
2023-01-25T02:50:29.547Z,28.19
2023-01-25T02:51:29.318Z,28.18
2023-01-25T02:52:29.694Z,28.19
2023-01-25T02:53:29.454Z,28.07
2023-01-25T02:54:29.530Z,28.13
2023-01-25T02:55:29.600Z,28.12
2023-01-25T02:56:29.669Z,28.14
2023-01-25T02:57:30.118Z,28.14
2023-01-25T02:58:29.821Z,28.14
2023-01-25T04:08:35.072Z,27.94
2023-01-25T04:11:35.047Z,27.90
2023-01-25T04:12:35.016Z,27.81
2023-01-25T04:13:35.074Z,27.93
2023-01-25T04:14:44.041Z,27.87
2023-01-25T04:15:36.137Z,27.84
2023-01-25T04:16:35.265Z,27.87
2023-01-25T04:17:35.404Z,27.86
2023-01-25T04:18:35.154Z,27.86
2023-01-25T04:19:35.147Z,27.88
2023-01-25T04:20:35.170Z,27.85
2023-01-25T04:21:35.412Z,27.83
2023-01-25T04:22:35.156Z,27.80
2023-01-25T04:23:35.180Z,27.83
2023-01-25T04:24:36.046Z,27.77
2023-01-25T04:25:35.286Z,27.86
2023-01-25T04:26:35.613Z,27.80
2023-01-25T04:27:35.386Z,27.77
2023-01-25T04:28:35.447Z,27.79
2023-01-25T04:29:41.031Z,27.76
2023-01-25T04:30:36.784Z,27.76
2023-01-25T04:31:35.617Z,27.73
2023-01-25T04:32:35.899Z,27.75
2023-01-25T04:33:35.491Z,27.75
2023-01-25T04:34:35.477Z,27.79
2023-01-25T04:35:35.463Z,27.66
2023-01-25T04:36:35.579Z,27.72
2023-01-25T04:37:35.464Z,27.71
2023-01-25T04:38:35.464Z,27.66
2023-01-25T04:39:35.500Z,27.65
2023-01-25T04:40:35.796Z,27.68
2023-01-25T04:41:35.573Z,27.66
2023-01-25T04:42:35.824Z,27.64
2023-01-25T04:43:35.680Z,27.64
2023-01-25T04:44:35.728Z,27.61
2023-01-25T04:45:36.069Z,27.64
2023-01-25T04:46:35.830Z,27.59
2023-01-25T04:47:35.859Z,27.59
2023-01-25T04:48:35.905Z,27.57
2023-01-25T04:49:35.948Z,27.55
2023-01-25T04:50:36.343Z,27.52
2023-01-25T04:51:36.037Z,27.52
2023-01-25T04:52:36.094Z,27.55
2023-01-25T04:53:36.125Z,27.56
2023-01-25T04:54:36.176Z,27.52
2023-01-25T04:55:36.240Z,27.51
2023-01-25T04:56:37.386Z,27.54
2023-01-25T04:57:36.316Z,27.52
2023-01-25T04:58:36.361Z,27.54
2023-01-25T04:59:36.394Z,27.48
2023-01-25T05:00:36.441Z,27.53
2023-01-25T05:01:36.555Z,27.51
2023-01-25T05:02:37.381Z,27.48
2023-01-25T05:03:36.576Z,27.52
2023-01-25T05:04:36.622Z,27.45
2023-01-25T05:05:36.655Z,27.51
2023-01-25T05:06:36.707Z,27.45
2023-01-25T05:07:36.753Z,27.48
2023-01-25T05:08:37.673Z,27.52
2023-01-25T05:09:36.821Z,27.49
2023-01-25T05:10:36.860Z,27.47
2023-01-25T05:11:36.904Z,27.48
2023-01-25T05:12:36.932Z,27.45
2023-01-25T05:13:36.970Z,27.44
2023-01-25T05:14:37.321Z,27.44
2023-01-25T05:15:37.043Z,27.44
2023-01-25T05:16:37.177Z,27.39
2023-01-25T05:17:37.132Z,27.45
2023-01-25T05:18:47.852Z,27.42
2023-01-25T05:19:38.169Z,27.44
2023-01-25T05:20:37.157Z,27.41
2023-01-25T05:21:37.179Z,27.42
2023-01-25T05:22:37.475Z,27.39
2023-01-25T05:23:37.147Z,27.42
2023-01-25T05:24:37.192Z,27.45
2023-01-25T05:25:37.141Z,27.39
2023-01-25T05:26:37.133Z,27.40
2023-01-25T05:27:38.173Z,27.38
2023-01-25T05:28:37.132Z,27.42
2023-01-25T05:29:37.314Z,27.44
2023-01-25T05:30:37.116Z,27.47
2023-01-25T05:31:37.168Z,27.42
2023-01-25T05:32:37.088Z,27.35
2023-01-25T05:33:37.084Z,27.38
2023-01-25T05:34:38.136Z,27.39
2023-01-25T05:35:37.082Z,27.38
2023-01-25T05:36:37.321Z,27.39
2023-01-25T05:37:37.095Z,27.39
2023-01-25T05:38:37.292Z,27.35
2023-01-25T05:39:37.072Z,27.35
2023-01-25T05:40:37.309Z,27.37
2023-01-25T05:41:37.085Z,27.36
2023-01-25T05:42:37.078Z,27.41
2023-01-25T05:43:37.264Z,27.37
2023-01-25T05:44:37.071Z,27.32
2023-01-25T05:45:37.060Z,27.36
2023-01-25T05:46:37.072Z,27.38
2023-01-25T05:47:37.053Z,27.45
2023-01-25T05:48:37.288Z,27.35
2023-01-25T05:49:37.054Z,27.39
2023-01-25T05:50:37.055Z,27.38
2023-01-25T05:51:37.097Z,27.34
2023-01-25T05:52:37.146Z,27.36
2023-01-25T05:53:37.179Z,27.36
2023-01-25T05:54:37.489Z,27.31
2023-01-25T05:55:37.265Z,27.32
2023-01-25T05:56:37.312Z,27.31
2023-01-25T05:57:37.554Z,27.38
2023-01-25T05:58:37.384Z,27.34
2023-01-25T05:59:37.445Z,27.39
2023-01-25T06:00:37.457Z,27.36
2023-01-25T06:01:37.500Z,27.35
2023-01-25T06:02:37.619Z,27.32
2023-01-25T06:03:37.725Z,27.33
2023-01-25T06:04:37.636Z,27.38
2023-01-25T06:05:38.021Z,27.38
2023-01-25T06:06:37.733Z,27.35
2023-01-25T06:07:37.754Z,27.39
2023-01-25T06:08:38.570Z,27.33
2023-01-25T06:09:37.841Z,27.39
2023-01-25T06:10:37.898Z,27.32
2023-01-25T06:11:37.995Z,27.38
2023-01-25T06:12:38.336Z,27.38
2023-01-25T06:13:38.021Z,27.36
2023-01-25T06:14:38.369Z,27.41
2023-01-25T06:15:38.141Z,27.38
2023-01-25T06:16:38.211Z,27.31
2023-01-25T06:17:38.254Z,27.36
2023-01-25T06:18:38.200Z,27.44
2023-01-25T06:19:38.252Z,27.42
2023-01-25T06:20:38.271Z,27.45
2023-01-25T06:21:38.322Z,27.48
2023-01-25T06:22:38.475Z,27.70
2023-01-25T06:23:38.424Z,27.91
2023-01-25T06:24:38.458Z,28.10
2023-01-25T06:25:38.511Z,28.08
2023-01-25T06:26:38.546Z,27.89
2023-01-25T06:27:38.592Z,28.48
2023-01-25T06:28:38.630Z,28.69
2023-01-25T06:29:38.661Z,29.54
2023-01-25T06:30:38.717Z,28.95
2023-01-25T06:31:38.854Z,28.67
2023-01-25T06:32:38.822Z,28.47
2023-01-25T06:33:38.839Z,28.32
2023-01-25T06:34:38.877Z,28.31
2023-01-25T06:35:38.918Z,28.30
2023-01-25T06:36:38.969Z,28.32
2023-01-25T06:37:39.008Z,28.28
2023-01-25T06:38:39.036Z,28.30
2023-01-25T06:39:39.088Z,28.28
2023-01-25T06:40:39.127Z,28.29
2023-01-25T06:41:39.148Z,28.22
2023-01-25T06:42:39.202Z,28.25
2023-01-25T06:43:39.264Z,28.30
2023-01-25T06:44:39.277Z,28.25
2023-01-25T06:45:39.304Z,28.29
2023-01-25T06:46:39.460Z,28.32
2023-01-25T06:47:39.386Z,28.25
2023-01-25T06:48:39.440Z,28.37
2023-01-25T06:49:39.464Z,28.34
2023-01-25T06:50:39.557Z,28.31
2023-01-25T06:51:39.548Z,28.26
2023-01-25T06:52:39.597Z,28.34
2023-01-25T06:53:39.636Z,28.35
2023-01-25T06:54:39.671Z,28.35
2023-01-25T06:55:39.716Z,28.31
2023-01-25T06:56:39.777Z,28.29
2023-01-25T06:57:39.806Z,28.29
2023-01-25T06:58:39.852Z,28.25
2023-01-25T06:59:39.881Z,28.31
2023-01-25T07:00:39.934Z,28.29
2023-01-25T07:01:40.024Z,28.35
2023-01-25T07:02:40.073Z,28.30
2023-01-25T07:03:40.115Z,28.32
2023-01-25T07:04:40.116Z,28.32
2023-01-25T07:05:40.165Z,28.32
2023-01-25T07:06:40.193Z,28.35
2023-01-25T07:07:40.261Z,28.33
2023-01-25T07:08:40.306Z,28.33
2023-01-25T07:09:40.358Z,28.33
2023-01-25T07:10:40.422Z,28.33
2023-01-25T07:11:40.448Z,28.30
2023-01-25T07:12:40.492Z,28.35
2023-01-25T07:13:40.536Z,28.35
2023-01-25T07:14:40.585Z,28.32
2023-01-25T07:15:40.630Z,28.32
2023-01-25T07:16:40.666Z,28.35
2023-01-25T07:17:40.706Z,28.39
2023-01-25T07:18:41.579Z,28.33
2023-01-25T07:19:40.787Z,28.38
2023-01-25T07:20:40.813Z,28.60
2023-01-25T07:21:40.846Z,28.95
2023-01-25T07:22:40.867Z,29.22
2023-01-25T07:23:40.906Z,29.51
2023-01-25T07:24:40.937Z,29.66
2023-01-25T07:25:40.955Z,29.90
2023-01-25T07:26:41.004Z,30.03
2023-01-25T07:27:42.592Z,30.31
2023-01-25T07:28:41.042Z,30.48
2023-01-25T07:29:41.066Z,30.83
2023-01-25T07:30:42.095Z,31.07
2023-01-25T07:31:42.117Z,31.41
2023-01-25T07:32:42.097Z,31.66
2023-01-25T07:33:41.085Z,31.68
2023-01-25T07:34:41.219Z,31.78
2023-01-25T07:35:41.577Z,31.83
2023-01-25T07:36:41.047Z,32.05
2023-01-25T07:37:41.022Z,32.35
2023-01-25T07:38:41.018Z,32.60
2023-01-25T07:39:41.013Z,32.84
2023-01-25T07:40:41.502Z,32.96
2023-01-25T07:41:41.005Z,33.14
2023-01-25T07:42:40.976Z,33.17
2023-01-25T07:43:40.954Z,33.14
2023-01-25T07:44:40.944Z,33.48
2023-01-25T07:46:40.920Z,33.86
2023-01-25T07:47:40.891Z,33.88
2023-01-25T07:48:40.882Z,34.18
2023-01-25T07:49:40.881Z,34.52
2023-01-25T07:50:40.890Z,34.73
2023-01-25T07:51:40.863Z,34.83
2023-01-25T07:52:40.851Z,34.96
2023-01-25T07:53:40.851Z,35.03
2023-01-25T07:54:40.870Z,34.89
2023-01-25T07:55:40.938Z,34.99
2023-01-25T07:56:41.018Z,35.03
2023-01-25T07:57:41.040Z,34.85
2023-01-25T07:58:42.011Z,34.52
2023-01-25T11:37:47.731Z,35.37
2023-01-25T14:36:43.952Z,31.29
2023-01-25T14:39:45.944Z,31.21
2023-01-25T14:42:44.235Z,31.20
2023-01-25T15:04:44.887Z,30.97
2023-01-25T15:05:45.748Z,30.95
2023-01-25T15:06:44.941Z,30.93
2023-01-25T15:07:44.992Z,30.90
2023-01-25T15:08:45.851Z,30.89
2023-01-25T15:09:45.167Z,30.81
2023-01-25T15:10:45.091Z,30.87
2023-01-25T15:11:45.124Z,30.84
2023-01-25T15:12:45.151Z,30.78
2023-01-25T15:13:45.196Z,30.78
2023-01-25T15:14:46.025Z,30.78
2023-01-25T15:15:45.272Z,30.74
2023-01-25T15:16:45.538Z,30.75
2023-01-25T15:17:45.385Z,30.75
2023-01-25T15:18:45.503Z,30.74
2023-01-25T15:19:45.429Z,30.72
2023-01-25T15:20:45.547Z,30.74
2023-01-25T15:21:45.509Z,30.69
2023-01-25T15:22:45.553Z,30.63
2023-01-25T15:25:45.691Z,30.66
2023-01-25T16:50:50.175Z,30.18
2023-01-25T16:51:50.208Z,30.13
2023-01-25T16:52:50.278Z,30.15
2023-01-25T16:53:50.612Z,30.09
2023-01-25T16:54:50.379Z,30.07
2023-01-25T16:55:50.454Z,30.08
2023-01-25T16:56:50.849Z,30.12
2023-01-25T16:57:50.575Z,30.09
2023-01-25T16:58:50.621Z,30.09
2023-01-25T16:59:50.689Z,30.09
2023-01-25T17:00:50.735Z,30.07
2023-01-25T17:01:51.041Z,30.04
2023-01-25T17:02:59.148Z,30.07
2023-01-25T17:03:51.869Z,30.09
2023-01-25T17:04:50.871Z,30.03
2023-01-25T17:05:50.873Z,30.04
2023-01-25T17:06:50.913Z,30.07
2023-01-25T17:07:50.877Z,30.06
2023-01-25T17:08:50.870Z,30.03
2023-01-25T17:09:52.016Z,30.06
2023-01-25T17:10:50.874Z,30.03
2023-01-25T17:11:51.195Z,30.02
2023-01-25T17:12:50.941Z,29.99
2023-01-25T17:13:51.037Z,30.00
2023-01-25T17:14:50.905Z,30.03
2023-01-25T17:15:50.990Z,29.99
2023-01-25T17:16:51.037Z,29.99
2023-01-25T17:17:51.091Z,30.00
2023-01-25T17:18:53.244Z,29.98
2023-01-25T17:19:51.511Z,29.97
2023-01-25T17:20:51.335Z,29.98
2023-01-25T17:21:51.571Z,30.00
2023-01-25T17:22:51.409Z,29.95
2023-01-25T17:23:51.485Z,30.00
2023-01-25T17:24:51.505Z,29.91
2023-01-25T17:25:51.585Z,29.92
2023-01-25T17:26:51.620Z,29.92
2023-01-25T17:27:52.050Z,29.91
2023-01-25T17:28:51.753Z,29.90
2023-01-25T17:29:52.061Z,29.94
2023-01-25T17:30:54.308Z,29.93
2023-01-25T17:31:52.175Z,29.91
2023-01-25T17:32:52.567Z,29.91
2023-01-25T17:33:52.223Z,29.91
2023-01-25T17:34:52.366Z,29.94
2023-01-25T17:35:52.349Z,29.91
2023-01-25T17:36:52.409Z,29.85
2023-01-25T17:37:52.639Z,29.90
2023-01-25T17:38:52.535Z,29.92
2023-01-25T17:39:52.592Z,29.84
2023-01-25T17:40:52.658Z,29.85
2023-01-25T17:42:52.787Z,29.88
2023-01-25T17:43:53.156Z,29.86
2023-01-25T18:16:54.882Z,29.67
2023-01-25T18:17:54.937Z,29.67
2023-01-25T18:18:55.005Z,29.63
2023-01-25T18:19:55.076Z,29.70
2023-01-25T18:20:55.447Z,29.63
2023-01-25T18:21:55.310Z,29.60
2023-01-25T18:22:55.325Z,29.58
2023-01-25T18:27:55.581Z,29.57
2023-01-25T18:28:56.328Z,29.58
2023-01-25T18:30:55.856Z,29.55
2023-01-25T18:31:55.866Z,29.57
2023-01-25T18:32:56.182Z,29.57
2023-01-25T18:33:55.921Z,29.55
2023-01-25T18:34:56.006Z,29.55
2023-01-25T18:35:56.072Z,29.54
2023-01-25T18:36:56.144Z,29.52
2023-01-25T18:37:56.431Z,29.51
2023-01-25T18:38:56.281Z,29.52
2023-01-25T18:39:56.349Z,29.51
2023-01-25T18:40:56.429Z,29.54
2023-01-25T18:41:56.459Z,29.52
2023-01-25T18:42:56.527Z,29.48
2023-01-25T18:43:56.871Z,29.51
2023-01-25T18:44:56.660Z,29.54
2023-01-25T18:45:56.725Z,29.45
2023-01-25T18:46:56.795Z,29.43
2023-01-25T18:47:56.865Z,29.43
2023-01-25T18:48:56.920Z,29.45
2023-01-25T18:49:56.980Z,29.51
2023-01-25T18:50:57.052Z,29.41
2023-01-25T18:52:10.777Z,29.47
2023-01-25T18:52:58.095Z,29.45
2023-01-25T18:53:57.094Z,29.45
2023-01-25T18:54:57.083Z,29.45
2023-01-25T18:55:57.090Z,29.42
2023-01-25T18:56:57.831Z,29.42
2023-01-25T18:57:57.115Z,29.36
2023-01-25T18:58:57.310Z,29.43
2023-01-25T18:59:59.677Z,29.45
2023-01-25T19:00:57.186Z,29.42
2023-01-25T19:01:57.605Z,29.39
2023-01-25T19:02:57.401Z,29.36
2023-01-25T19:03:57.079Z,29.47
2023-01-25T19:04:57.263Z,29.39
2023-01-25T19:05:57.069Z,29.36
2023-01-25T19:06:57.069Z,29.33
2023-01-25T19:07:57.391Z,29.39
2023-01-25T19:08:57.124Z,29.36
2023-01-25T19:09:57.065Z,29.33
2023-01-25T19:10:57.168Z,29.32
2023-01-25T19:11:57.043Z,29.33
2023-01-25T19:12:57.049Z,29.29
2023-01-25T19:13:57.078Z,29.32
2023-01-25T19:14:57.050Z,29.33
2023-01-25T19:15:57.064Z,29.28
2023-01-25T19:16:57.040Z,29.32
2023-01-25T19:17:57.040Z,29.27
2023-01-25T19:18:57.139Z,29.32
2023-01-25T19:19:57.042Z,29.32
2023-01-25T19:20:57.036Z,29.28
2023-01-25T19:21:57.058Z,29.26
2023-01-25T19:22:57.038Z,29.26
2023-01-25T19:23:57.074Z,29.24
2023-01-25T19:24:57.153Z,29.28
2023-01-25T19:25:57.048Z,29.23
2023-01-25T19:26:57.036Z,29.24
2023-01-25T19:27:57.044Z,29.28
2023-01-25T19:28:57.047Z,29.21
2023-01-25T19:29:57.036Z,29.23
2023-01-25T19:30:57.122Z,29.24
2023-01-25T19:31:57.098Z,29.30
2023-01-25T19:32:57.015Z,29.27
2023-01-25T19:33:57.018Z,29.27
2023-01-25T19:34:57.025Z,29.21
2023-01-25T19:35:57.013Z,29.23
2023-01-25T19:36:57.003Z,29.18
2023-01-25T19:37:58.131Z,29.27
2023-01-25T19:38:57.115Z,29.23
2023-01-25T22:20:05.769Z,28.34
2023-01-25T22:26:05.715Z,28.37
2023-01-25T22:28:05.196Z,28.37
2023-01-25T22:29:04.952Z,28.31
2023-01-25T22:30:05.132Z,28.33
2023-01-25T22:31:05.116Z,28.28
2023-01-25T22:32:05.045Z,28.30
2023-01-25T22:33:05.073Z,28.42
2023-01-25T22:35:05.401Z,28.24
2023-01-25T22:36:05.158Z,28.23
2023-01-25T22:37:05.190Z,28.31
2023-01-25T22:38:05.299Z,28.30
2023-01-25T22:39:05.538Z,28.27
2023-01-25T22:40:05.291Z,28.31
2023-01-25T22:41:05.326Z,28.33
2023-01-25T22:42:05.373Z,28.33
2023-01-25T22:43:05.974Z,28.33
2023-01-25T22:44:05.444Z,28.29
2023-01-25T22:45:05.649Z,28.31
2023-01-25T22:46:05.556Z,28.25
2023-01-25T22:47:05.547Z,28.21
2023-01-25T22:48:06.522Z,28.17
2023-01-25T22:49:05.694Z,28.27
2023-01-25T22:50:05.748Z,28.28
2023-01-25T22:51:05.807Z,28.26
2023-01-25T22:52:06.198Z,28.24
2023-01-25T22:53:06.013Z,28.21
2023-01-25T22:54:06.021Z,28.24
2023-01-25T22:55:06.165Z,28.18
2023-01-25T22:56:06.505Z,28.23
2023-01-25T22:57:06.502Z,28.20
2023-01-25T22:58:06.304Z,28.20
2023-01-25T22:59:06.696Z,28.17
2023-01-25T23:00:06.408Z,28.21
2023-01-25T23:01:06.454Z,28.20
2023-01-25T23:02:06.739Z,28.21
2023-01-25T23:03:06.514Z,28.14
2023-01-25T23:04:06.569Z,28.17
2023-01-25T23:05:06.620Z,28.18
2023-01-25T23:06:06.666Z,28.23
2023-01-25T23:07:06.702Z,28.18
2023-01-25T23:08:06.725Z,28.20
2023-01-25T23:09:06.773Z,28.21
2023-01-25T23:11:06.804Z,28.20
2023-01-25T23:12:06.870Z,28.17
2023-01-25T23:14:07.154Z,28.11
2023-01-25T23:15:06.942Z,28.14
2023-01-25T23:16:07.044Z,28.12
2023-01-25T23:17:07.000Z,28.18
2023-01-25T23:18:07.027Z,28.07
2023-01-25T23:19:07.081Z,28.12
2023-01-25T23:20:07.191Z,28.15
2023-01-25T23:22:07.261Z,28.09
2023-01-25T23:23:07.285Z,28.03
2023-01-25T23:24:07.375Z,28.11
2023-01-25T23:25:07.371Z,28.11
2023-01-25T23:28:07.553Z,28.02
